x

South Nomad (46036) Wave Buoy

4:00pm - Thu 21st Sep 2017 All times are UTC.

  • Sig Wave height 11.2ft
  • Peak Period 8s
  • Wind
    25mph, 29mph gusts
  • Sea Temp 59°f
  • Air Temp 58°f
  • Sea Pressure 1022.8mb

More Historic Weather Station data

Upgrade to MSW Pro to gain access to the past 30 days of data for over 8000 Wavebouys and Weather Stations around the globe.

Join

Comparision Forecast

View Surf forecast
   
Thu 09/21 4:00pm 11ft 8s 25 29 mph 1022.8mb 59f 58f
3:00pm 10ft 8s 25 31 mph 1022.5mb 59f 58f
2:00pm 10ft 9s 27 34 mph 1022.1mb 59f 58f
1:00pm 10ft 9s 25 31 mph 1022.2mb 59f 58f
12:00pm  -   -  27
mph
1022mb - 58f
11:00am 11ft 9s 25 31 mph 1021.9mb 60f 58f
10:00am 11ft 9s 27 31 mph 1021.7mb 60f 58f
9:00am 11ft 9s 25 29 mph 1021.6mb 60f 58f
8:00am 12.5ft 9s 25 31 mph 1021.4mb 60f 58f
7:00am 12ft 9s 25 34 mph 1021mb 60f 58f
6:00am  -   -  25
mph
1021mb - 58f
5:00am 12.5ft 10s 27 34 mph 1020.8mb 60f 59f
4:00am 12ft 10s 27 34 mph 1020.5mb 60f 58f
3:00am 12ft 10s 27 31 mph 1020.3mb 60f 59f
2:00am 12ft 10s 27 34 mph 1020mb 60f 59f
1:00am 12ft 10s 27 34 mph 1019.5mb 60f 59f
12:00am 11ft 10s 27 34 mph 1019.1mb 60f 59f
Wed 09/20 10:00pm 11ft 10s 25 31 mph 1018.4mb 60f 58f
9:00pm 13ft 10s 25 29 mph 1018.2mb 60f 59f
8:00pm 11.5ft 10s 25 31 mph 1017.6mb 60f 58f
7:00pm 12.5ft 9s 25 29 mph 1017.3mb 60f 58f
6:00pm 12ft 10s 27 31 mph 1016.5mb 60f 57f
5:00pm 12ft 9s 27 31 mph 1015.7mb 60f 57f
4:00pm 13ft 8s 29 34 mph 1015.3mb 60f 57f
3:00pm 13ft 10s 34 43 mph 1015mb 60f 55f
2:00pm 13ft 9s 27 31 mph 1014.5mb 60f 57f
1:00pm 13ft 10s 25 31 mph 1014.2mb 60f 57f
12:00pm 13ft 10s 27 34 mph 1013.8mb 60f 57f
11:00am 12ft 9s 27 34 mph 1013.4mb 60f 57f
10:00am 12.5ft 9s 29 34 mph 1013.2mb 60f 57f
9:00am 12.5ft 9s 27 34 mph 1012.8mb 60f 57f
8:00am 12.5ft 10s 27 31 mph 1012.4mb 60f 57f
7:00am 13ft 10s 25 31 mph 1012.2mb 60f 56f
6:00am 12ft 8s 29 36 mph 1012.1mb 60f 57f
5:00am 11.5ft 9s 29 38 mph 1012mb 60f 56f
4:00am 12ft 8s 27 34 mph 1011.9mb 60f 57f
3:00am 11.5ft 8s 25 31 mph 1011.9mb 60f 55f
2:00am 11ft 8s 25 31 mph 1012mb 60f 56f
1:00am 10.5ft 12s 29 36 mph 1011.6mb 60f 57f
12:00am 10ft 10s 29 34 mph 1011.6mb 60f 57f
Tue 09/19 11:00pm 10ft 11s 25 31 mph 1011.7mb 60f 56f
10:00pm 9.5ft 11s 27 31 mph 1011.6mb 60f 56f
9:00pm 9.5ft 12s 22 29 mph 1011.6mb 60f 57f
8:00pm 9ft 12s 18 22 mph 1011.8mb 60f 56f
7:00pm 9ft 12s 16 20 mph 1012mb 60f 54f
5:00pm 10ft 10s 18 20 mph 1011.8mb 60f 57f
4:00pm 10.5ft 11s 11 16 mph 1011.8mb 60f 57f
3:00pm 10.5ft 10s 11 16 mph 1011.8mb 60f 57f
2:00pm 12ft 12s 13 16 mph 1011.8mb 60f 57f
1:00pm 11ft 11s 13 18 mph 1011.8mb 60f 57f
12:00pm 11.5ft 14s 13 16 mph 1011.9mb 60f 57f
11:00am 12ft 11s 13 18 mph 1011.9mb 60f 57f
10:00am 12.5ft 12s 16 18 mph 1012.1mb 60f 57f
9:00am 13ft 14s 18 22 mph 1012mb 60f 57f
8:00am 13ft 14s 18 22 mph 1012mb 60f 58f
7:00am 15ft 14s 20 22 mph 1011.9mb 60f 58f
6:00am 15ft 13s 20 25 mph 1011.9mb 60f 58f
5:00am 17ft 14s 20 27 mph 1011.7mb 60f 58f
4:00am 18ft 14s 22 29 mph 1011.4mb 60f 58f
3:00am 21.5ft 14s 25 29 mph 1011mb 60f 58f
2:00am 19.5ft 14s 22 29 mph 1010.6mb 60f 58f
1:00am 20ft 14s 25 31 mph 1010.4mb 60f 58f
12:00am 18.5ft 14s 27 31 mph 1010mb 60f 58f
Mon 09/18 11:00pm 20.5ft 14s 27 34 mph 1009.5mb 60f 58f
10:00pm 19.5ft 15s 27 34 mph 1009mb 60f 58f
9:00pm 19.5ft 14s 29 36 mph 1008.2mb 60f 58f
8:00pm  -   -  29
mph
- - 58f
7:00pm 22.5ft 11s 31 40 mph 1006.8mb 60f 58f
6:00pm 21.5ft 14s 34 40 mph 1006.1mb 60f 57f
5:00pm 21.5ft 15s 34 45 mph 1005.5mb 60f 57f
4:00pm 22.5ft 14s 36 43 mph 1005mb 60f 57f
3:00pm 22.5ft 15s 31 43 mph 1004.9mb 60f 54f
2:00pm 22ft 11s 34 45 mph 1004.3mb 60f 57f
1:00pm 21.5ft 13s 31 38 mph 1004.4mb 60f 56f
12:00pm 19.5ft 14s 31 40 mph 1004.3mb 60f 57f
11:00am 18.5ft 11s 31 40 mph 1004.8mb 60f 57f
10:00am 16ft 10s 31 38 mph 1005.6mb 60f 56f
9:00am 14ft 11s 31 38 mph 1005.8mb 60f 57f
8:00am 14ft 12s 29 38 mph 1006.5mb 60f 57f
7:00am 14ft 11s 25 31 mph 1007.3mb 60f 56f
6:00am 14ft 12s 27 31 mph 1007.6mb 60f 57f
5:00am 13ft 10s 29 36 mph 1007.6mb 61f 57f
4:00am 14ft 11s 27 34 mph 1007.9mb 61f 55f
3:00am 13ft 11s 25 31 mph 1008mb 61f 57f
2:00am 13ft 10s 27 31 mph 1008.2mb 61f 57f
1:00am 12.5ft 10s 25 34 mph 1008.3mb 61f 57f
12:00am 12ft 10s 27 34 mph 1008.7mb 61f 57f
Sun 09/17 11:00pm 11.5ft 10s 22 29 mph 1009mb 61f 57f
10:00pm 12ft 9s 22 29 mph 1009.5mb 61f 57f
9:00pm 12.5ft 9s 27 31 mph 1009.4mb 61f 57f
8:00pm 12ft 9s 22 27 mph 1009.5mb 61f 57f